createdAt,value
2019-03-01T00:05:39.802Z,100652.73
2019-03-01T00:08:46.162Z,100662.75
2019-03-01T00:11:26.073Z,100658.44
2019-03-01T00:14:03.776Z,100656.72
2019-03-01T00:17:09.764Z,100652.39
2019-03-01T00:20:15.659Z,100661.50
2019-03-01T00:23:21.594Z,100659.79
2019-03-01T00:26:11.616Z,100655.00
2019-03-01T00:29:17.777Z,100657.17
2019-03-01T00:32:07.147Z,100649.80
2019-03-01T00:35:13.375Z,100643.28
2019-03-01T00:38:05.658Z,100639.81
2019-03-01T00:41:11.569Z,100644.58
2019-03-01T00:44:17.455Z,100645.02
2019-03-01T00:46:44.334Z,100643.27
2019-03-01T00:49:11.453Z,100639.34
2019-03-01T00:51:38.814Z,100642.82
2019-03-01T00:54:05.772Z,100638.94
2019-03-01T00:56:32.415Z,100641.11
2019-03-01T00:58:59.151Z,100638.94
2019-03-01T01:01:26.398Z,100631.13
2019-03-01T01:03:53.422Z,100628.95
2019-03-01T01:06:20.162Z,100631.12
2019-03-01T01:08:47.683Z,100624.19
2019-03-01T01:11:14.567Z,100620.28
2019-03-01T01:13:54.213Z,100607.70
2019-03-01T01:16:21.029Z,100614.64
2019-03-01T01:18:48.270Z,100604.23
2019-03-01T01:21:15.147Z,100595.55
2019-03-01T01:23:41.892Z,100600.76
2019-03-01T01:26:09.043Z,100617.25
2019-03-01T01:28:36.116Z,100610.73
2019-03-01T01:31:02.847Z,100606.37
2019-03-01T01:33:29.983Z,100602.48
2019-03-01T01:35:56.781Z,100602.48
2019-03-01T01:38:23.525Z,100597.72
2019-03-01T01:40:50.269Z,100589.03
2019-03-01T01:43:17.440Z,100583.36
2019-03-01T01:45:44.282Z,100583.77
2019-03-01T01:48:11.125Z,100579.41
2019-03-01T01:50:38.092Z,100571.12
2019-03-01T01:53:04.839Z,100571.09
2019-03-01T01:55:31.860Z,100551.06
2019-03-01T01:57:58.861Z,100544.15
2019-03-01T02:00:25.619Z,100544.11
2019-03-01T02:02:52.461Z,100557.02
2019-03-01T02:05:19.371Z,100551.81
2019-03-01T02:07:46.107Z,100561.36
2019-03-01T02:10:32.814Z,100547.02
2019-03-01T02:12:59.925Z,100549.19
2019-03-01T02:15:39.030Z,100537.89
2019-03-01T02:18:05.787Z,100535.67
2019-03-01T02:20:32.723Z,100525.67
2019-03-01T02:23:00.002Z,100528.28
2019-03-01T02:25:27.035Z,100529.19
2019-03-01T02:27:53.791Z,100534.37
2019-03-01T02:30:22.788Z,100529.14
2019-03-01T02:32:50.145Z,100532.14
2019-03-01T02:35:19.179Z,100538.21
2019-03-01T02:37:46.124Z,100530.40
2019-03-01T02:40:13.115Z,100520.83
2019-03-01T02:42:39.964Z,100523.83
2019-03-01T02:45:08.644Z,100524.73
2019-03-01T02:47:35.396Z,100519.47
2019-03-01T02:50:02.155Z,100522.51
2019-03-01T02:52:28.937Z,100519.05
2019-03-01T02:54:55.952Z,100515.16
2019-03-01T02:57:23.080Z,100516.86
2019-03-01T02:59:50.056Z,100520.27
2019-03-01T03:02:17.136Z,100519.88
2019-03-01T03:04:44.011Z,100521.59
2019-03-01T03:07:30.494Z,100519.91
2019-03-01T03:09:57.243Z,100515.55
2019-03-01T03:12:24.283Z,100508.16
2019-03-01T03:14:51.398Z,100512.49
2019-03-01T03:17:18.178Z,100505.16
2019-03-01T03:19:45.194Z,100507.28
2019-03-01T03:22:12.057Z,100502.48
2019-03-01T03:24:38.918Z,100514.67
2019-03-01T03:27:05.865Z,100503.85
2019-03-01T03:29:33.243Z,100502.94
2019-03-01T03:31:59.993Z,100496.03
2019-03-01T03:34:26.742Z,100497.66
2019-03-01T03:36:54.148Z,100501.14
2019-03-01T03:39:20.897Z,100500.31
2019-03-01T03:41:47.650Z,100505.48
2019-03-01T03:44:14.805Z,100508.58
2019-03-01T03:46:41.646Z,100502.92
2019-03-01T03:49:08.478Z,100505.48
2019-03-01T03:51:35.563Z,100506.41
2019-03-01T03:56:25.247Z,100493.80
2019-03-01T03:58:52.446Z,100493.88
2019-03-01T04:01:19.538Z,100495.16
2019-03-01T04:03:46.812Z,100496.36
2019-03-01T04:06:14.047Z,100485.48
2019-03-01T04:08:41.139Z,100481.26
2019-03-01T04:11:08.692Z,100489.89
2019-03-01T04:13:35.928Z,100485.53
2019-03-01T04:16:03.460Z,100484.22
2019-03-01T04:18:30.618Z,100488.14
2019-03-01T04:20:58.131Z,100486.78
2019-03-01T04:23:25.411Z,100478.58
2019-03-01T04:25:52.500Z,100478.56
2019-03-01T04:28:19.642Z,100475.03
2019-03-01T04:30:46.753Z,100475.16
2019-03-01T04:33:14.145Z,100467.28
2019-03-01T04:35:41.360Z,100464.59
2019-03-01T04:38:08.866Z,100467.69
2019-03-01T04:40:36.276Z,100466.33
2019-03-01T04:43:03.500Z,100455.46
2019-03-01T04:45:30.577Z,100450.67
2019-03-01T04:47:57.668Z,100450.65
2019-03-01T04:50:24.817Z,100448.44
2019-03-01T04:52:51.905Z,100442.78
2019-03-01T04:55:21.402Z,100440.64
2019-03-01T04:57:48.609Z,100441.45
2019-03-01T05:00:17.682Z,100429.77
2019-03-01T05:02:44.772Z,100417.11
2019-03-01T05:05:34.732Z,100421.03
2019-03-01T05:08:01.822Z,100420.02
2019-03-01T05:10:29.206Z,100412.68
2019-03-01T05:12:56.421Z,100410.20
2019-03-01T05:15:23.610Z,100414.42
2019-03-01T05:17:50.824Z,100403.63
2019-03-01T05:20:18.740Z,100396.27
2019-03-01T05:22:46.162Z,100393.17
2019-03-01T05:25:13.530Z,100393.59
2019-03-01T05:27:42.916Z,100398.81
2019-03-01T05:30:11.598Z,100407.52
2019-03-01T05:32:41.203Z,100402.80
2019-03-01T05:35:30.063Z,100400.29
2019-03-01T05:37:57.160Z,100411.59
2019-03-01T05:40:24.058Z,100408.89
2019-03-01T05:42:51.023Z,100405.88
2019-03-01T05:45:20.357Z,100406.31
2019-03-01T05:47:47.640Z,100410.29
2019-03-01T05:50:14.683Z,100409.34
2019-03-01T05:52:41.433Z,100406.80
2019-03-01T05:55:08.340Z,100411.16
2019-03-01T05:57:35.645Z,100405.50
2019-03-01T06:03:20.446Z,100405.89
2019-03-01T06:05:47.585Z,100407.17
2019-03-01T06:08:30.595Z,100402.39
2019-03-01T06:17:32.106Z,100403.63
2019-03-01T06:20:38.041Z,100406.23
2019-03-01T06:23:44.183Z,100414.04
2019-03-01T06:26:35.552Z,100415.23
2019-03-01T06:29:41.632Z,100421.39
2019-03-01T06:32:48.079Z,100419.23
2019-03-01T06:35:54.163Z,100412.25
2019-03-01T06:39:19.808Z,100418.79
2019-03-01T06:45:05.056Z,100421.67
2019-03-01T06:47:51.620Z,100425.12
2019-03-01T06:50:32.257Z,100416.77
2019-03-01T06:52:59.435Z,100425.38
2019-03-01T06:55:47.344Z,100426.66
2019-03-01T06:58:37.717Z,100425.80
2019-03-01T07:01:24.261Z,100423.20
2019-03-01T07:06:43.252Z,100430.58
2019-03-01T07:09:10.787Z,100433.58
2019-03-01T07:11:37.862Z,100433.19
2019-03-01T07:14:05.515Z,100429.08
2019-03-01T07:16:32.545Z,100436.47
2019-03-01T07:18:59.578Z,100443.56
2019-03-01T07:21:26.365Z,100447.48
2019-03-01T07:23:53.225Z,100449.24
2019-03-01T07:26:20.255Z,100451.41
2019-03-01T07:28:47.817Z,100458.38
2019-03-01T07:31:14.949Z,100444.11
2019-03-01T07:33:41.734Z,100448.44
2019-03-01T07:36:08.896Z,100444.97
2019-03-01T07:38:35.641Z,100449.35
2019-03-01T07:41:02.382Z,100455.78
2019-03-01T07:43:29.218Z,100458.47
2019-03-01T07:45:56.826Z,100444.11
2019-03-01T07:48:25.687Z,100447.59
2019-03-01T07:50:55.251Z,100446.17
2019-03-01T07:53:21.603Z,100446.95
2019-03-01T07:55:48.488Z,100450.94
2019-03-01T07:58:15.382Z,100450.50
2019-03-01T08:00:42.245Z,100450.45
2019-03-01T08:03:11.995Z,100454.89
2019-03-01T08:05:39.400Z,100452.71
2019-03-01T08:08:07.410Z,100457.95
2019-03-01T08:10:34.558Z,100452.67
2019-03-01T08:13:01.548Z,100453.98
2019-03-01T08:15:28.402Z,100455.22
2019-03-01T08:17:55.877Z,100456.09
2019-03-01T08:20:23.064Z,100452.25
2019-03-01T08:22:49.890Z,100453.84
2019-03-01T08:25:22.507Z,100453.02
2019-03-01T08:27:46.346Z,100451.72
2019-03-01T08:30:14.788Z,100442.08
2019-03-01T08:32:41.645Z,100448.06
2019-03-01T08:35:09.925Z,100452.47
2019-03-01T08:37:36.889Z,100452.06
2019-03-01T08:40:06.049Z,100453.40
2019-03-01T08:42:36.343Z,100443.38
2019-03-01T08:45:02.905Z,100448.98
2019-03-01T08:47:31.259Z,100452.84
2019-03-01T08:49:58.125Z,100450.14
2019-03-01T08:52:25.416Z,100447.14
2019-03-01T08:54:52.333Z,100448.58
2019-03-01T08:57:22.699Z,100450.97
2019-03-01T08:59:48.425Z,100448.34
2019-03-01T09:02:15.343Z,100450.97
2019-03-01T09:04:50.684Z,100441.70
2019-03-01T09:07:31.366Z,100451.84
2019-03-01T09:09:59.515Z,100452.70
2019-03-01T09:12:27.149Z,100454.23
2019-03-01T09:14:54.291Z,100454.91
2019-03-01T09:17:21.546Z,100461.08
2019-03-01T09:19:49.550Z,100457.08
2019-03-01T09:22:16.794Z,100456.05
2019-03-01T09:24:43.921Z,100465.66
2019-03-01T09:27:11.073Z,100466.91
2019-03-01T09:29:42.071Z,100471.60
2019-03-01T09:32:07.359Z,100471.86
2019-03-01T09:34:34.129Z,100470.11
2019-03-01T09:37:01.200Z,100468.78
2019-03-01T09:39:28.384Z,100470.02
2019-03-01T09:42:02.870Z,100472.62
2019-03-01T09:44:24.742Z,100473.16
2019-03-01T09:46:52.587Z,100474.88
2019-03-01T09:49:21.456Z,100464.33
2019-03-01T09:51:49.996Z,100468.73
2019-03-01T09:54:17.664Z,100468.16
2019-03-01T09:56:45.192Z,100462.88
2019-03-01T09:59:12.708Z,100458.99
2019-03-01T10:01:39.907Z,100459.50
2019-03-01T10:04:07.046Z,100465.92
2019-03-01T10:06:38.028Z,100467.98
2019-03-01T10:09:44.101Z,100467.23
2019-03-01T10:12:11.242Z,100471.50
2019-03-01T10:14:38.359Z,100470.92
2019-03-01T10:17:05.538Z,100469.28
2019-03-01T10:19:32.845Z,100472.77
2019-03-01T10:21:59.947Z,100471.84
2019-03-01T10:24:27.855Z,100471.19
2019-03-01T10:26:55.342Z,100466.81
2019-03-01T10:29:22.869Z,100470.45
2019-03-01T10:31:50.519Z,100470.13
2019-03-01T10:34:18.025Z,100472.33
2019-03-01T10:36:45.142Z,100476.55
2019-03-01T10:39:14.441Z,100474.61
2019-03-01T10:41:41.920Z,100475.45
2019-03-01T10:44:09.029Z,100478.73
2019-03-01T10:46:37.035Z,100480.23
2019-03-01T10:49:04.138Z,100477.45
2019-03-01T10:51:31.347Z,100480.42
2019-03-01T10:53:58.493Z,100489.70
2019-03-01T10:56:26.020Z,100484.92
2019-03-01T10:58:53.133Z,100489.29
2019-03-01T11:01:20.292Z,100494.97
2019-03-01T11:03:47.503Z,100495.91
2019-03-01T11:06:14.766Z,100494.10
2019-03-01T11:08:42.243Z,100500.64
2019-03-01T11:11:10.111Z,100497.57
2019-03-01T11:13:37.226Z,100499.74
2019-03-01T11:16:04.876Z,100504.86
2019-03-01T11:18:32.463Z,100501.92
2019-03-01T11:20:59.597Z,100519.81
2019-03-01T11:23:27.062Z,100516.46
2019-03-01T11:25:54.178Z,100508.40
2019-03-01T11:28:21.761Z,100512.69
2019-03-01T11:30:49.003Z,100510.13
2019-03-01T11:33:16.458Z,100520.12
2019-03-01T11:35:43.555Z,100522.83
2019-03-01T11:38:10.738Z,100528.08
2019-03-01T11:40:38.221Z,100524.13
2019-03-01T11:43:05.440Z,100520.78
2019-03-01T11:45:52.198Z,100516.87
2019-03-01T11:48:19.780Z,100527.02
2019-03-01T11:50:47.160Z,100520.98
2019-03-01T11:53:14.080Z,100519.63
2019-03-01T11:55:40.833Z,100520.46
2019-03-01T11:58:07.599Z,100521.64
2019-03-01T12:00:34.440Z,100532.08
2019-03-01T12:03:01.180Z,100535.06
2019-03-01T12:05:28.027Z,100539.86
2019-03-01T12:07:55.557Z,100534.20
2019-03-01T12:13:11.705Z,100532.95
2019-03-01T12:15:38.847Z,100531.22
2019-03-01T12:18:05.618Z,100517.16
2019-03-01T12:20:32.434Z,100524.03
2019-03-01T12:23:00.106Z,100531.55
2019-03-01T12:25:26.867Z,100538.12
2019-03-01T12:27:53.796Z,100538.11
2019-03-01T12:30:20.887Z,100542.37
2019-03-01T12:32:48.399Z,100544.11
2019-03-01T12:35:15.391Z,100539.83
2019-03-01T12:37:42.633Z,100543.48
2019-03-01T12:40:12.265Z,100542.00
2019-03-01T12:42:39.419Z,100543.88
2019-03-01T12:45:07.373Z,100541.61
2019-03-01T12:47:34.137Z,100541.69
2019-03-01T12:50:01.282Z,100542.78
2019-03-01T12:52:28.548Z,100543.11
2019-03-01T12:54:55.350Z,100547.02
2019-03-01T12:57:22.280Z,100542.19
2019-03-01T12:59:49.075Z,100553.95
2019-03-01T13:02:16.115Z,100552.17
2019-03-01T13:04:42.901Z,100558.70
2019-03-01T13:07:10.543Z,100561.75
2019-03-01T13:09:38.590Z,100564.40
2019-03-01T13:12:05.739Z,100567.88
2019-03-01T13:14:33.078Z,100580.67
2019-03-01T13:17:01.764Z,100587.41
2019-03-01T13:19:28.729Z,100589.50
2019-03-01T13:21:55.758Z,100599.59
2019-03-01T13:24:22.780Z,100607.92
2019-03-01T13:26:49.566Z,100605.80
2019-03-01T13:29:19.093Z,100612.01
2019-03-01T13:31:47.127Z,100609.04
2019-03-01T13:34:14.494Z,100609.13
2019-03-01T13:36:43.217Z,100616.45
2019-03-01T13:39:10.424Z,100612.97
2019-03-01T13:41:39.103Z,100618.20
2019-03-01T13:44:06.613Z,100623.52
2019-03-01T13:46:33.764Z,100623.09
2019-03-01T13:49:00.926Z,100632.33
2019-03-01T13:51:28.639Z,100629.34
2019-03-01T13:53:56.126Z,100627.63
2019-03-01T13:56:23.354Z,100635.07
2019-03-01T13:58:50.454Z,100632.96
2019-03-01T14:01:17.571Z,100643.41
2019-03-01T14:03:45.240Z,100640.45
2019-03-01T14:06:12.324Z,100645.69
2019-03-01T14:08:39.419Z,100640.14
2019-03-01T14:11:06.572Z,100647.03
2019-03-01T14:13:52.822Z,100648.84
2019-03-01T14:16:20.539Z,100651.95
2019-03-01T14:18:48.287Z,100660.55
2019-03-01T14:21:15.155Z,100657.50
2019-03-01T14:23:41.945Z,100665.72
2019-03-01T14:26:09.215Z,100664.41
2019-03-01T14:28:38.029Z,100662.66
2019-03-01T14:31:24.697Z,100668.27
2019-03-01T14:33:51.946Z,100670.80
2019-03-01T14:36:31.444Z,100675.21
2019-03-01T14:38:58.576Z,100682.20
2019-03-01T14:41:25.368Z,100678.63
2019-03-01T14:43:52.440Z,100683.27
2019-03-01T14:46:20.898Z,100679.73
2019-03-01T14:48:48.650Z,100677.10
2019-03-01T14:51:15.549Z,100679.48
2019-03-01T14:54:02.408Z,100684.63
2019-03-01T14:56:34.888Z,100686.88
2019-03-01T14:59:25.045Z,100685.91
2019-03-01T15:02:31.015Z,100683.56
2019-03-01T15:05:01.342Z,100685.64
2019-03-01T15:07:30.788Z,100683.98
2019-03-01T15:09:58.181Z,100681.84
2019-03-01T15:12:24.981Z,100686.19
2019-03-01T15:14:51.733Z,100687.93
2019-03-01T15:17:21.800Z,100682.70
2019-03-01T15:20:08.501Z,100686.67
2019-03-01T15:22:36.393Z,100684.00
2019-03-01T15:25:03.750Z,100691.27
2019-03-01T15:27:31.077Z,100690.38
2019-03-01T15:29:58.465Z,100693.84
2019-03-01T15:32:26.100Z,100696.11
2019-03-01T15:34:53.545Z,100692.55
2019-03-01T15:37:40.472Z,100697.33
2019-03-01T15:40:07.498Z,100705.04
2019-03-01T15:45:30.747Z,100706.52
2019-03-01T15:47:58.815Z,100714.42
2019-03-01T15:50:28.261Z,100712.31
2019-03-01T15:52:57.632Z,100721.02
2019-03-01T15:55:26.643Z,100724.95
2019-03-01T15:57:56.409Z,100728.37
2019-03-01T16:00:25.535Z,100729.23
2019-03-01T16:02:54.099Z,100729.25
2019-03-01T16:05:22.012Z,100730.70
2019-03-01T16:07:49.200Z,100730.19
2019-03-01T16:10:16.474Z,100736.86
2019-03-01T16:12:43.771Z,100739.00
2019-03-01T16:15:11.956Z,100745.96
2019-03-01T16:17:39.612Z,100751.30
2019-03-01T16:20:09.407Z,100756.47
2019-03-01T16:22:36.539Z,100757.34
2019-03-01T16:25:04.363Z,100760.88
2019-03-01T16:27:31.236Z,100765.17
2019-03-01T16:29:59.279Z,100759.58
2019-03-01T16:32:26.697Z,100768.67
2019-03-01T16:34:53.649Z,100769.55
2019-03-01T16:37:22.692Z,100768.79
2019-03-01T16:39:49.391Z,100779.63
2019-03-01T16:42:17.984Z,100778.33
2019-03-01T16:44:45.685Z,100781.80
2019-03-01T16:47:13.161Z,100788.39
2019-03-01T16:50:02.779Z,100786.65
2019-03-01T16:52:30.231Z,100789.75
2019-03-01T16:54:57.467Z,100797.59
2019-03-01T16:57:25.032Z,100799.33
2019-03-01T16:59:52.096Z,100794.55
2019-03-01T17:02:19.439Z,100803.73
2019-03-01T17:04:46.694Z,100802.86
2019-03-01T17:07:13.655Z,100812.44
2019-03-01T17:10:00.765Z,100813.35
2019-03-01T17:12:28.598Z,100821.19
2019-03-01T17:14:55.711Z,100826.41
2019-03-01T17:17:22.896Z,100828.59
2019-03-01T17:19:50.547Z,100827.72
2019-03-01T17:22:17.671Z,100832.94
2019-03-01T17:24:48.215Z,100841.68
2019-03-01T17:27:14.234Z,100850.42
2019-03-01T17:29:41.357Z,100848.64
2019-03-01T17:32:08.749Z,100850.82
2019-03-01T17:34:36.356Z,100849.08
2019-03-01T17:37:25.878Z,100855.61
2019-03-01T17:39:53.105Z,100852.56
2019-03-01T17:42:20.703Z,100857.78
2019-03-01T17:44:49.177Z,100855.17
2019-03-01T17:47:16.197Z,100857.35
2019-03-01T17:49:42.977Z,100863.45
2019-03-01T17:52:30.577Z,100870.38
2019-03-01T17:55:01.411Z,100876.94
2019-03-01T17:57:29.190Z,100878.67
2019-03-01T17:59:56.708Z,100877.80
2019-03-01T18:02:23.765Z,100879.55
2019-03-01T18:04:50.603Z,100883.91
2019-03-01T18:07:17.763Z,100891.28
2019-03-01T18:09:44.609Z,100895.68
2019-03-01T18:12:11.390Z,100893.91
2019-03-01T18:14:38.244Z,100891.77
2019-03-01T18:17:05.399Z,100902.63
2019-03-01T18:19:32.824Z,100910.45
2019-03-01T18:21:59.683Z,100900.47
2019-03-01T18:24:26.689Z,100907.42
2019-03-01T18:26:53.437Z,100907.87
2019-03-01T18:29:20.229Z,100908.31
2019-03-01T18:31:46.988Z,100913.12
2019-03-01T18:34:13.911Z,100912.23
2019-03-01T18:37:03.731Z,100924.44
2019-03-01T18:39:30.343Z,100923.97
2019-03-01T18:41:59.320Z,100929.62
2019-03-01T18:44:27.037Z,100934.41
2019-03-01T18:46:56.242Z,100941.82
2019-03-01T18:49:24.310Z,100946.17
2019-03-01T18:51:51.031Z,100950.08
2019-03-01T18:54:17.870Z,100951.81
2019-03-01T18:56:44.991Z,100953.55
2019-03-01T18:59:11.793Z,100960.91
2019-03-01T19:01:38.533Z,100963.98
2019-03-01T19:04:05.472Z,100971.34
2019-03-01T19:06:32.674Z,100978.75
2019-03-01T19:09:00.018Z,100978.75
2019-03-01T19:11:26.931Z,100975.23
2019-03-01T19:13:55.149Z,100979.16
2019-03-01T19:16:25.323Z,100983.02
2019-03-01T19:18:52.538Z,100986.50
2019-03-01T19:21:20.809Z,100987.83
2019-03-01T19:23:47.766Z,100996.48
2019-03-01T19:26:14.525Z,100999.07
2019-03-01T19:28:41.547Z,100996.48
2019-03-01T19:31:08.387Z,101002.09
2019-03-01T19:33:37.843Z,100996.00
2019-03-01T19:36:04.385Z,100999.44
2019-03-01T19:38:31.196Z,101003.80
2019-03-01T19:40:58.039Z,101003.73
2019-03-01T19:43:25.578Z,101006.36
2019-03-01T19:45:52.533Z,101008.12
2019-03-01T19:48:19.273Z,101008.09
2019-03-01T19:50:46.178Z,101015.89
2019-03-01T19:53:13.500Z,101010.30
2019-03-01T19:55:40.249Z,101012.86
2019-03-01T19:58:08.657Z,101015.91
2019-03-01T20:00:35.745Z,101016.77
2019-03-01T20:03:02.481Z,101021.94
2019-03-01T20:05:31.988Z,101024.17
2019-03-01T20:07:58.124Z,101023.27
2019-03-01T20:10:25.887Z,101021.52
2019-03-01T20:12:53.196Z,101026.23
2019-03-01T20:15:22.246Z,101030.20
2019-03-01T20:17:49.780Z,101033.18
2019-03-01T20:20:18.284Z,101034.48
2019-03-01T20:22:46.168Z,101041.00
2019-03-01T20:25:16.003Z,101039.69
2019-03-01T20:27:42.313Z,101043.66
2019-03-01T20:30:16.429Z,101048.87
2019-03-01T20:32:43.160Z,101049.26
2019-03-01T20:35:12.877Z,101049.70
2019-03-01T20:37:40.064Z,101051.89
2019-03-01T20:40:09.752Z,101056.74
2019-03-01T20:42:36.936Z,101065.34
2019-03-01T20:45:05.167Z,101056.25
2019-03-01T20:47:31.978Z,101059.25
2019-03-01T20:49:58.844Z,101058.82
2019-03-01T20:52:25.878Z,101062.72
2019-03-01T20:54:52.995Z,101064.00
2019-03-01T20:57:19.863Z,101069.62
2019-03-01T20:59:46.962Z,101068.34
2019-03-01T21:02:34.823Z,101066.19
2019-03-01T21:05:01.648Z,101069.66
2019-03-01T21:07:28.998Z,101072.70
2019-03-01T21:09:56.076Z,101071.32
2019-03-01T21:12:22.807Z,101071.73
2019-03-01T21:14:49.447Z,101076.61
2019-03-01T21:17:16.852Z,101074.83
2019-03-01T21:19:45.005Z,101073.50
2019-03-01T21:22:12.026Z,101077.91
2019-03-01T21:24:39.334Z,101078.76
2019-03-01T21:27:25.995Z,101077.39
2019-03-01T21:29:54.816Z,101081.31
2019-03-01T21:32:22.233Z,101080.45
2019-03-01T21:34:48.981Z,101084.31
2019-03-01T21:37:16.617Z,101085.20
2019-03-01T21:39:45.099Z,101080.41
2019-03-01T21:42:12.276Z,101083.85
2019-03-01T21:44:39.112Z,101083.38
2019-03-01T21:47:06.983Z,101085.99
2019-03-01T21:49:34.575Z,101089.52
2019-03-01T21:52:01.459Z,101089.94
2019-03-01T21:54:28.975Z,101099.03
2019-03-01T21:56:56.973Z,101103.76
2019-03-01T21:59:25.511Z,101096.84
2019-03-01T22:01:52.901Z,101093.36
2019-03-01T22:04:20.879Z,101095.96
2019-03-01T22:06:48.484Z,101092.05
2019-03-01T22:09:36.997Z,101096.35
2019-03-01T22:12:03.803Z,101092.91
2019-03-01T22:14:30.525Z,101102.47
2019-03-01T22:16:57.252Z,101099.80
2019-03-01T22:19:24.105Z,101102.34
2019-03-01T22:21:50.747Z,101097.16
2019-03-01T22:24:17.766Z,101095.00
2019-03-01T22:26:46.652Z,101097.61
2019-03-01T22:29:13.380Z,101101.09
2019-03-01T22:31:40.121Z,101095.44
2019-03-01T22:34:07.308Z,101098.47
2019-03-01T22:36:34.043Z,101099.37
2019-03-01T22:39:01.154Z,101088.09
2019-03-01T22:41:28.234Z,101094.61
2019-03-01T22:43:54.925Z,101096.72
2019-03-01T22:46:24.832Z,101088.09
2019-03-01T22:48:56.353Z,101091.06
2019-03-01T22:51:19.793Z,101096.28
2019-03-01T22:53:48.533Z,101098.05
2019-03-01T22:56:15.604Z,101099.34
2019-03-01T22:58:42.338Z,101102.75
2019-03-01T23:01:49.730Z,101100.59
2019-03-01T23:04:16.463Z,101100.59
2019-03-01T23:06:43.455Z,101108.78
2019-03-01T23:09:14.071Z,101108.78
2019-03-01T23:11:40.908Z,101109.17
2019-03-01T23:14:07.966Z,101110.43
2019-03-01T23:16:35.047Z,101117.83
2019-03-01T23:19:02.036Z,101117.77
2019-03-01T23:21:28.685Z,101111.69
2019-03-01T23:23:55.905Z,101113.02
2019-03-01T23:26:24.913Z,101119.09
2019-03-01T23:28:53.185Z,101114.28
2019-03-01T23:31:20.677Z,101109.91
2019-03-01T23:33:48.220Z,101113.84
2019-03-01T23:36:15.987Z,101112.96
2019-03-01T23:38:43.242Z,101108.23
2019-03-01T23:41:11.338Z,101109.55
2019-03-01T23:43:39.903Z,101110.23
2019-03-01T23:46:06.650Z,101107.23
2019-03-01T23:48:33.392Z,101113.80
2019-03-01T23:51:00.477Z,101122.03
2019-03-01T23:53:27.531Z,101119.47
2019-03-01T23:55:55.733Z,101120.70
2019-03-01T23:58:23.607Z,101122.88
